Terminal Aerodrome Forecast
Issued by NWS Cleveland, OH

Home | Current Version | Previous Version | Text Only | Print | Product List | Glossary Off
Versions: 1 2 3 4 5 6 7 8 9 10 11 12 13 14 15 16 17 18 19 20 21

000
FTUS41 KCLE 230500 RRA
TAFERI
TAF
KERI 230541Z 2306/2406 20006KT P6SM BKN080 OVC250
      TEMPO 2308/2311 5SM -TSRA OVC035CB
     FM231100 26010KT P6SM VCSH OVC035
     FM231400 33008KT P6SM OVC012
     FM231600 33010KT P6SM OVC025
     FM231900 33012KT P6SM BKN035
     FM232300 35010KT P6SM BKN045=

USA.gov is the U.S. government's official web portal to all federal, state and local government web resources and services.